Time;durP1;ratioP1;P1;durP2;ratioP2;P2;SDS_P1;SDS_P2;PMS_P1;PMS_P2;Temp;Humidity;BMP_temperature;BMP_pressure;BME280_temperature;BME280_humidity;BME280_pressure;Samples;Min_cycle;Max_cycle;Signal;HPM_P1;HPM_P2
2023/07/08 00:00:16;;;;;;;11.20;6.93;;;;;;;;;;4369891;32;317298;-83
2023/07/08 00:02:44;;;;;;;13.48;7.47;;;;;;;;;;4383047;32;317613;-81
2023/07/08 00:05:12;;;;;;;10.85;7.05;;;;;;;;;;4373412;32;318156;-83
2023/07/08 00:07:39;;;;;;;14.52;7.90;;;;;;;;;;4382510;32;318765;-83
2023/07/08 00:10:13;;;;;;;11.12;7.65;;;;;;;;;;4382133;32;318259;-83
2023/07/08 00:12:40;;;;;;;8.85;7.28;;;;;;;;;;4369371;32;419295;-83
2023/07/08 00:15:08;;;;;;;8.88;7.37;;;;;;;;;;4372239;32;317231;-84
2023/07/08 00:17:34;;;;;;;15.48;8.02;;;;;;;;;;4381127;32;317217;-81
2023/07/08 00:20:03;;;;;;;7.87;6.68;;;;;;;;;;4381771;32;318068;-83
2023/07/08 00:22:29;;;;;;;9.77;7.53;;;;;;;;;;4365752;32;317382;-82
2023/07/08 00:24:56;;;;;;;13.20;7.37;;;;;;;;;;4381903;32;317480;-81
2023/07/08 00:27:23;;;;;;;9.00;7.10;;;;;;;;;;4372930;32;317738;-81
2023/07/08 00:29:50;;;;;;;8.65;7.55;;;;;;;;;;4382113;32;317673;-80
2023/07/08 00:32:17;;;;;;;12.95;7.43;;;;;;;;;;4370583;32;390635;-80
2023/07/08 00:34:43;;;;;;;11.15;7.60;;;;;;;;;;4382828;32;317981;-81
2023/07/08 00:37:13;;;;;;;13.73;8.00;;;;;;;;;;4383158;32;318611;-81
2023/07/08 00:39:40;;;;;;;9.48;8.48;;;;;;;;;;4371801;32;318402;-81
2023/07/08 00:42:16;;;;;;;9.70;7.78;;;;;;;;;;4381797;32;317100;-81
2023/07/08 00:44:44;;;;;;;9.88;7.37;;;;;;;;;;4369127;32;416102;-81
2023/07/08 00:47:12;;;;;;;8.95;7.93;;;;;;;;;;4382026;32;317341;-81
2023/07/08 00:49:43;;;;;;;9.18;7.60;;;;;;;;;;4372962;32;317012;-81
2023/07/08 00:52:23;;;;;;;9.52;7.10;;;;;;;;;;4381775;32;316659;-81
2023/07/08 00:54:52;;;;;;;11.68;7.90;;;;;;;;;;4370035;32;417926;-82
2023/07/08 00:57:18;;;;;;;10.82;8.73;;;;;;;;;;4369019;32;322640;-81
2023/07/08 00:59:49;;;;;;;11.50;8.02;;;;;;;;;;4382664;32;318174;-81
2023/07/08 01:02:18;;;;;;;9.27;7.85;;;;;;;;;;4381558;32;329953;-81
2023/07/08 01:04:51;;;;;;;11.38;7.97;;;;;;;;;;4368419;32;416563;-81
2023/07/08 01:07:22;;;;;;;11.55;8.13;;;;;;;;;;4372898;32;318493;-81
2023/07/08 01:09:55;;;;;;;13.45;9.13;;;;;;;;;;4382223;32;327470;-81
2023/07/08 01:12:27;;;;;;;10.90;8.35;;;;;;;;;;4366510;32;318472;-81
2023/07/08 01:14:54;;;;;;;11.40;8.88;;;;;;;;;;4366885;32;327689;-81
2023/07/08 01:17:22;;;;;;;10.60;9.55;;;;;;;;;;4357369;32;318294;-81
2023/07/08 01:19:50;;;;;;;11.15;8.90;;;;;;;;;;4365823;32;318498;-81
2023/07/08 01:22:19;;;;;;;12.93;8.38;;;;;;;;;;4357537;32;318308;-81
2023/07/08 01:24:47;;;;;;;13.62;8.95;;;;;;;;;;4366196;32;318655;-81
2023/07/08 01:27:17;;;;;;;11.00;8.98;;;;;;;;;;4366153;32;346416;-81
2023/07/08 01:29:44;;;;;;;10.50;8.80;;;;;;;;;;4353284;32;415784;-81
2023/07/08 01:32:17;;;;;;;14.73;9.32;;;;;;;;;;4378023;32;318636;-81
2023/07/08 01:34:52;;;;;;;12.73;8.75;;;;;;;;;;4369113;32;417260;-81
2023/07/08 01:37:21;;;;;;;15.75;9.73;;;;;;;;;;4372235;32;318730;-81
2023/07/08 01:39:48;;;;;;;12.30;9.40;;;;;;;;;;4380877;32;318748;-81
2023/07/08 01:42:15;;;;;;;9.80;8.82;;;;;;;;;;4382117;32;318373;-81
2023/07/08 01:44:42;;;;;;;11.23;9.15;;;;;;;;;;4368175;32;416336;-81
2023/07/08 01:47:13;;;;;;;11.43;8.57;;;;;;;;;;4380557;32;334793;-81
2023/07/08 01:49:41;;;;;;;14.68;9.63;;;;;;;;;;4370613;32;317888;-81
2023/07/08 01:52:09;;;;;;;11.20;9.65;;;;;;;;;;4380815;32;318469;-81
2023/07/08 01:54:37;;;;;;;12.35;9.73;;;;;;;;;;4372026;32;318050;-81
2023/07/08 01:57:04;;;;;;;15.35;9.93;;;;;;;;;;4381850;32;318371;-81
2023/07/08 01:59:31;;;;;;;11.70;8.27;;;;;;;;;;4371999;32;317824;-81
2023/07/08 02:01:58;;;;;;;11.38;8.57;;;;;;;;;;4381227;32;318625;-81
2023/07/08 02:04:26;;;;;;;12.65;8.98;;;;;;;;;;4370492;32;318282;-83
2023/07/08 02:06:54;;;;;;;10.82;8.30;;;;;;;;;;4382066;32;318578;-81
2023/07/08 02:09:21;;;;;;;12.90;8.55;;;;;;;;;;4371793;32;317652;-81
2023/07/08 02:11:49;;;;;;;10.20;8.20;;;;;;;;;;4380387;32;318334;-81
2023/07/08 02:14:16;;;;;;;11.25;8.73;;;;;;;;;;4356356;32;318593;-82
2023/07/08 02:16:43;;;;;;;10.15;8.40;;;;;;;;;;4365007;32;317772;-81
2023/07/08 02:19:11;;;;;;;10.82;8.48;;;;;;;;;;4365447;32;345791;-81
2023/07/08 02:21:38;;;;;;;10.75;8.48;;;;;;;;;;4355733;32;318316;-81
2023/07/08 02:24:06;;;;;;;9.80;8.50;;;;;;;;;;4364732;32;317779;-81
2023/07/08 02:26:33;;;;;;;13.25;9.20;;;;;;;;;;4356688;32;317473;-82
2023/07/08 02:29:01;;;;;;;11.00;9.10;;;;;;;;;;4380696;32;318310;-81
2023/07/08 02:31:28;;;;;;;13.30;9.27;;;;;;;;;;4371483;32;318625;-80
2023/07/08 02:33:55;;;;;;;12.10;9.23;;;;;;;;;;4381110;32;318668;-81
2023/07/08 02:36:22;;;;;;;11.52;9.80;;;;;;;;;;4370636;32;318590;-81
2023/07/08 02:38:48;;;;;;;11.30;9.15;;;;;;;;;;4379914;32;319015;-81
2023/07/08 02:41:15;;;;;;;11.65;9.57;;;;;;;;;;4381251;32;318003;-81
2023/07/08 02:43:42;;;;;;;9.93;8.60;;;;;;;;;;4368225;32;419174;-81
2023/07/08 02:46:10;;;;;;;19.58;8.90;;;;;;;;;;4376676;32;348696;-80
2023/07/08 02:48:36;;;;;;;11.27;8.70;;;;;;;;;;4369825;32;320972;-81
2023/07/08 02:51:05;;;;;;;11.18;9.48;;;;;;;;;;4381497;32;317701;-81
2023/07/08 02:53:32;;;;;;;13.82;8.30;;;;;;;;;;4370792;32;334710;-81
2023/07/08 02:55:59;;;;;;;10.50;9.07;;;;;;;;;;4379972;32;317766;-81
2023/07/08 02:58:26;;;;;;;13.05;8.73;;;;;;;;;;4371194;32;318230;-81
2023/07/08 03:00:53;;;;;;;10.65;7.87;;;;;;;;;;4381186;32;318537;-80
2023/07/08 03:03:21;;;;;;;13.68;8.45;;;;;;;;;;4371019;32;318610;-81
2023/07/08 03:05:55;;;;;;;11.50;9.32;;;;;;;;;;4380167;32;318340;-81
2023/07/08 03:08:22;;;;;;;13.93;9.35;;;;;;;;;;4370256;32;318319;-81
2023/07/08 03:10:49;;;;;;;12.27;7.78;;;;;;;;;;4380992;32;318265;-81
2023/07/08 03:13:15;;;;;;;11.30;8.90;;;;;;;;;;4381022;32;317935;-81
2023/07/08 03:15:46;;;;;;;14.05;9.10;;;;;;;;;;4368297;32;418074;-81
2023/07/08 03:18:12;;;;;;;11.98;9.00;;;;;;;;;;4380708;32;317794;-81
2023/07/08 03:20:44;;;;;;;11.73;8.80;;;;;;;;;;4370620;32;318450;-80
2023/07/08 03:23:11;;;;;;;12.10;8.75;;;;;;;;;;4379903;32;318936;-81
2023/07/08 03:25:38;;;;;;;15.25;9.82;;;;;;;;;;4371300;32;318309;-82
2023/07/08 03:28:05;;;;;;;13.27;9.02;;;;;;;;;;4380727;32;318014;-81
2023/07/08 03:30:32;;;;;;;16.62;9.27;;;;;;;;;;4370830;32;318189;-81
2023/07/08 03:32:59;;;;;;;12.30;8.80;;;;;;;;;;4380375;32;317826;-81
2023/07/08 03:35:26;;;;;;;14.68;9.10;;;;;;;;;;4370916;32;317758;-81
2023/07/08 03:37:54;;;;;;;13.10;9.15;;;;;;;;;;4383532;32;324733;-81
2023/07/08 03:40:21;;;;;;;10.65;8.90;;;;;;;;;;4371535;32;391920;-81
2023/07/08 03:42:47;;;;;;;16.05;9.57;;;;;;;;;;4383696;32;317914;-80
2023/07/08 03:45:14;;;;;;;10.98;8.70;;;;;;;;;;4383438;32;317845;-81
2023/07/08 03:47:41;;;;;;;17.05;9.73;;;;;;;;;;4369302;32;419816;-81
2023/07/08 03:50:18;;;;;;;12.07;8.27;;;;;;;;;;4383807;32;318576;-81
2023/07/08 03:52:45;;;;;;;14.15;9.13;;;;;;;;;;4371061;32;417639;-81
2023/07/08 03:55:14;;;;;;;10.10;8.45;;;;;;;;;;4382432;32;318807;-80
2023/07/08 03:57:40;;;;;;;12.98;9.10;;;;;;;;;;4373475;32;318556;-81
2023/07/08 04:00:12;;;;;;;16.55;9.38;;;;;;;;;;4383566;32;318423;-81
2023/07/08 04:02:39;;;;;;;12.02;9.27;;;;;;;;;;4373238;32;318416;-81
2023/07/08 04:05:06;;;;;;;13.15;8.55;;;;;;;;;;4383614;32;318916;-80
2023/07/08 04:07:33;;;;;;;14.80;9.00;;;;;;;;;;4372337;32;318015;-82
2023/07/08 04:09:59;;;;;;;14.20;9.68;;;;;;;;;;4383384;32;318765;-80
2023/07/08 04:12:28;;;;;;;13.93;9.25;;;;;;;;;;4373551;32;318312;-81
2023/07/08 04:14:55;;;;;;;11.65;9.52;;;;;;;;;;4382067;32;356522;-80
2023/07/08 04:17:23;;;;;;;10.63;8.82;;;;;;;;;;4373062;32;318415;-80
2023/07/08 04:19:50;;;;;;;12.18;9.38;;;;;;;;;;4382644;32;318311;-82
2023/07/08 04:22:17;;;;;;;11.00;8.65;;;;;;;;;;4373480;32;318002;-81
2023/07/08 04:24:44;;;;;;;15.85;9.00;;;;;;;;;;4383182;32;318350;-80
2023/07/08 04:27:13;;;;;;;10.70;8.90;;;;;;;;;;4383191;32;318659;-80
2023/07/08 04:29:42;;;;;;;9.80;8.80;;;;;;;;;;4373230;32;318421;-80
2023/07/08 04:32:09;;;;;;;9.93;8.30;;;;;;;;;;4382463;32;316747;-80
2023/07/08 04:34:35;;;;;;;13.55;9.48;;;;;;;;;;4373129;32;317272;-80
2023/07/08 04:37:04;;;;;;;9.65;8.65;;;;;;;;;;4381805;32;317709;-80
2023/07/08 04:39:31;;;;;;;10.57;8.25;;;;;;;;;;4373206;32;317633;-80
2023/07/08 04:41:58;;;;;;;13.93;8.20;;;;;;;;;;4381495;32;324150;-82
2023/07/08 04:44:24;;;;;;;10.45;8.68;;;;;;;;;;4372774;32;318323;-80
2023/07/08 04:46:55;;;;;;;14.77;9.18;;;;;;;;;;4380673;32;318228;-80
2023/07/08 04:49:23;;;;;;;16.17;9.52;;;;;;;;;;4372822;32;317867;-82
2023/07/08 04:51:50;;;;;;;15.00;10.10;;;;;;;;;;4382946;32;318431;-81
2023/07/08 04:54:17;;;;;;;11.77;8.30;;;;;;;;;;4371682;32;319349;-82
2023/07/08 04:56:46;;;;;;;12.07;9.52;;;;;;;;;;4380673;32;345160;-81
2023/07/08 04:59:15;;;;;;;12.77;9.35;;;;;;;;;;4382622;32;317559;-81
2023/07/08 05:01:42;;;;;;;11.10;9.02;;;;;;;;;;4369334;32;418130;-81
2023/07/08 05:04:10;;;;;;;10.38;9.38;;;;;;;;;;4382540;32;317789;-81
2023/07/08 05:06:37;;;;;;;11.48;9.13;;;;;;;;;;4371482;32;317581;-81
2023/07/08 05:09:04;;;;;;;11.93;9.35;;;;;;;;;;4381207;32;317530;-81
2023/07/08 05:11:31;;;;;;;14.87;10.02;;;;;;;;;;4371280;32;318289;-82
2023/07/08 05:13:58;;;;;;;12.20;9.32;;;;;;;;;;4382207;32;319450;-81
2023/07/08 05:16:25;;;;;;;12.48;9.20;;;;;;;;;;4371003;32;318351;-82
2023/07/08 05:18:52;;;;;;;13.90;9.80;;;;;;;;;;4380919;32;318694;-81
2023/07/08 05:21:21;;;;;;;14.80;9.23;;;;;;;;;;4372655;32;318081;-82
2023/07/08 05:23:49;;;;;;;13.23;10.80;;;;;;;;;;4381279;32;318809;-82
2023/07/08 05:26:17;;;;;;;17.42;9.50;;;;;;;;;;4380149;32;345096;-81
2023/07/08 05:28:43;;;;;;;11.77;8.98;;;;;;;;;;4369421;32;418825;-81
2023/07/08 05:31:10;;;;;;;11.73;9.93;;;;;;;;;;4380837;32;317822;-81
2023/07/08 05:33:37;;;;;;;15.23;9.50;;;;;;;;;;4370801;32;318411;-81
2023/07/08 05:36:04;;;;;;;17.62;9.60;;;;;;;;;;4382107;32;318804;-81
2023/07/08 05:38:32;;;;;;;12.63;9.32;;;;;;;;;;4370960;32;318370;-81
2023/07/08 05:41:00;;;;;;;13.52;10.10;;;;;;;;;;4380737;32;318188;-81
2023/07/08 05:43:27;;;;;;;11.95;9.82;;;;;;;;;;4371772;32;318655;-82
2023/07/08 05:45:58;;;;;;;19.23;10.20;;;;;;;;;;4381294;32;332429;-82
2023/07/08 05:48:25;;;;;;;13.13;10.02;;;;;;;;;;4370403;32;318493;-82
2023/07/08 05:50:52;;;;;;;12.00;10.10;;;;;;;;;;4381816;32;319524;-81
2023/07/08 05:53:20;;;;;;;14.87;10.43;;;;;;;;;;4371925;32;319256;-81
2023/07/08 05:55:49;;;;;;;14.65;10.20;;;;;;;;;;4381780;32;319442;-81
2023/07/08 05:58:16;;;;;;;11.20;9.98;;;;;;;;;;4381072;32;318935;-82
2023/07/08 06:00:43;;;;;;;14.20;10.38;;;;;;;;;;4368516;32;419094;-82
2023/07/08 06:03:09;;;;;;;15.05;10.15;;;;;;;;;;4381359;32;319292;-82
2023/07/08 06:05:37;;;;;;;25.62;10.48;;;;;;;;;;4370841;32;319338;-84
2023/07/08 06:08:04;;;;;;;14.95;11.23;;;;;;;;;;4380068;32;338450;-82
2023/07/08 06:10:31;;;;;;;20.87;11.10;;;;;;;;;;4368594;32;340420;-82
2023/07/08 06:12:59;;;;;;;14.68;11.05;;;;;;;;;;4381063;32;318882;-82
2023/07/08 06:15:25;;;;;;;18.58;11.70;;;;;;;;;;4370176;32;319187;-82
2023/07/08 06:17:52;;;;;;;12.93;10.13;;;;;;;;;;4380444;32;318874;-83
2023/07/08 06:20:19;;;;;;;12.27;9.35;;;;;;;;;;4370397;32;319507;-82
2023/07/08 06:22:46;;;;;;;13.60;10.02;;;;;;;;;;4381494;32;318357;-82
2023/07/08 06:25:12;;;;;;;17.33;11.18;;;;;;;;;;4381892;32;319412;-82
2023/07/08 06:27:40;;;;;;;15.57;11.25;;;;;;;;;;4371790;32;319676;-82
2023/07/08 06:30:09;;;;;;;14.90;10.70;;;;;;;;;;4382808;32;319697;-82
2023/07/08 06:32:36;;;;;;;13.13;9.73;;;;;;;;;;4370671;32;318591;-81
2023/07/08 06:35:03;;;;;;;10.45;9.40;;;;;;;;;;4380039;32;330455;-81
2023/07/08 06:37:30;;;;;;;11.10;9.27;;;;;;;;;;4371360;32;318468;-82
2023/07/08 06:39:56;;;;;;;15.93;8.98;;;;;;;;;;4382159;32;318525;-82
2023/07/08 06:42:23;;;;;;;17.73;10.45;;;;;;;;;;4371491;32;318308;-81
2023/07/08 06:44:51;;;;;;;13.57;9.50;;;;;;;;;;4381201;32;319290;-82
2023/07/08 06:47:19;;;;;;;10.82;8.63;;;;;;;;;;4372090;32;318402;-83
2023/07/08 06:49:46;;;;;;;12.15;9.02;;;;;;;;;;4378940;32;318855;-82
2023/07/08 06:52:14;;;;;;;11.32;8.07;;;;;;;;;;4378395;32;317778;-82
2023/07/08 06:54:40;;;;;;;10.18;9.05;;;;;;;;;;4369313;32;318217;-82
2023/07/08 06:57:07;;;;;;;11.90;7.87;;;;;;;;;;4378300;32;318414;-82
2023/07/08 06:59:34;;;;;;;10.15;7.45;;;;;;;;;;4368402;32;318443;-82
2023/07/08 07:02:01;;;;;;;8.85;6.37;;;;;;;;;;4377977;32;317517;-82
2023/07/08 07:04:30;;;;;;;11.60;6.03;;;;;;;;;;4371305;32;316831;-82
2023/07/08 07:06:57;;;;;;;12.60;6.12;;;;;;;;;;4379968;32;317526;-81
2023/07/08 07:09:24;;;;;;;8.65;6.28;;;;;;;;;;4371101;32;318365;-82
2023/07/08 07:11:50;;;;;;;10.50;7.05;;;;;;;;;;4382320;32;317672;-82
2023/07/08 07:14:17;;;;;;;13.27;6.03;;;;;;;;;;4357965;32;318734;-82
2023/07/08 07:16:44;;;;;;;8.15;5.97;;;;;;;;;;4368907;32;317603;-81
2023/07/08 07:19:10;;;;;;;9.13;5.65;;;;;;;;;;4373249;32;317479;-82
2023/07/08 07:21:38;;;;;;;6.10;5.15;;;;;;;;;;4373444;32;353234;-81
2023/07/08 07:24:06;;;;;;;6.97;5.32;;;;;;;;;;4384487;32;317260;-81
2023/07/08 07:26:33;;;;;;;7.55;5.43;;;;;;;;;;4374337;32;316431;-82
2023/07/08 07:29:00;;;;;;;8.73;6.43;;;;;;;;;;4385491;32;317169;-85
2023/07/08 07:31:26;;;;;;;7.70;5.40;;;;;;;;;;4374988;32;316778;-81
2023/07/08 07:33:53;;;;;;;11.23;6.45;;;;;;;;;;4384013;32;317680;-81
2023/07/08 07:36:20;;;;;;;8.73;6.05;;;;;;;;;;4375149;32;318289;-81
2023/07/08 07:38:48;;;;;;;8.05;6.05;;;;;;;;;;4385288;32;316830;-81
2023/07/08 07:41:14;;;;;;;7.03;4.90;;;;;;;;;;4384150;32;316830;-81
2023/07/08 07:43:41;;;;;;;9.88;6.03;;;;;;;;;;4368958;32;418564;-81
2023/07/08 07:46:08;;;;;;;8.18;5.72;;;;;;;;;;4383297;32;317379;-81
2023/07/08 07:48:35;;;;;;;6.45;5.00;;;;;;;;;;4371719;32;317231;-81
2023/07/08 07:51:01;;;;;;;8.52;5.62;;;;;;;;;;4382522;32;316822;-81
2023/07/08 07:53:28;;;;;;;9.75;6.07;;;;;;;;;;4372210;32;317184;-82
2023/07/08 07:56:00;;;;;;;9.55;5.82;;;;;;;;;;4383474;32;316458;-81
2023/07/08 07:58:27;;;;;;;8.90;5.28;;;;;;;;;;4374008;32;316422;-81
2023/07/08 08:00:55;;;;;;;6.95;5.43;;;;;;;;;;4383895;32;316946;-81
2023/07/08 08:03:22;;;;;;;7.18;5.22;;;;;;;;;;4375163;32;317414;-81
2023/07/08 08:05:49;;;;;;;8.35;6.18;;;;;;;;;;4384812;32;317176;-81
2023/07/08 08:08:16;;;;;;;7.35;5.05;;;;;;;;;;4385189;32;316783;-81
2023/07/08 08:10:44;;;;;;;6.25;5.00;;;;;;;;;;4371387;32;416122;-81
2023/07/08 08:13:12;;;;;;;11.10;5.10;;;;;;;;;;4383512;32;317141;-81
2023/07/08 08:15:39;;;;;;;8.65;4.68;;;;;;;;;;4374411;32;318753;-81
2023/07/08 08:18:06;;;;;;;5.62;4.32;;;;;;;;;;4384963;32;317341;-80
2023/07/08 08:20:32;;;;;;;7.70;5.18;;;;;;;;;;4374807;32;316650;-81
2023/07/08 08:22:59;;;;;;;6.85;4.87;;;;;;;;;;4382979;32;317420;-81
2023/07/08 08:25:26;;;;;;;7.20;4.50;;;;;;;;;;4375029;32;317377;-80
2023/07/08 08:27:52;;;;;;;8.45;4.57;;;;;;;;;;4384655;32;317614;-80
2023/07/08 08:30:21;;;;;;;5.25;4.05;;;;;;;;;;4374024;32;317156;-80
2023/07/08 08:32:47;;;;;;;5.78;4.50;;;;;;;;;;4384208;32;317377;-81
2023/07/08 08:35:14;;;;;;;8.15;5.07;;;;;;;;;;4383271;32;316809;-81
2023/07/08 08:37:41;;;;;;;8.23;4.18;;;;;;;;;;4374758;32;316766;-81
2023/07/08 08:40:14;;;;;;;6.22;4.32;;;;;;;;;;4384653;32;317367;-81
2023/07/08 08:42:43;;;;;;;5.95;4.50;;;;;;;;;;4374507;32;316780;-81
2023/07/08 08:45:14;;;;;;;5.10;4.22;;;;;;;;;;4383193;32;317217;-81
2023/07/08 08:47:44;;;;;;;5.20;4.55;;;;;;;;;;4374003;32;316839;-81
2023/07/08 08:50:26;;;;;;;5.25;3.70;;;;;;;;;;4380745;32;345960;-81
2023/07/08 08:52:54;;;;;;;4.05;3.35;;;;;;;;;;4369839;32;416503;-81
2023/07/08 08:55:23;;;;;;;5.80;3.85;;;;;;;;;;4371788;32;317468;-81
2023/07/08 08:57:58;;;;;;;4.97;3.97;;;;;;;;;;4381435;32;317506;-81
2023/07/08 09:00:30;;;;;;;5.10;4.23;;;;;;;;;;4368858;32;347174;-81
2023/07/08 09:03:04;;;;;;;6.70;4.15;;;;;;;;;;4379550;32;317662;-81
2023/07/08 09:05:31;;;;;;;7.35;3.15;;;;;;;;;;4371108;32;317413;-81
2023/07/08 09:08:06;;;;;;;5.40;3.47;;;;;;;;;;4380980;32;317278;-81
2023/07/08 09:10:44;;;;;;;6.10;3.20;;;;;;;;;;4371795;32;317341;-81
2023/07/08 09:13:20;;;;;;;7.82;3.60;;;;;;;;;;4382358;32;317124;-80
2023/07/08 09:15:47;;;;;;;4.85;3.55;;;;;;;;;;4369392;32;416459;-81
2023/07/08 09:18:22;;;;;;;5.53;3.03;;;;;;;;;;4382968;32;316631;-80
2023/07/08 09:20:49;;;;;;;5.97;3.60;;;;;;;;;;4371469;32;416411;-80
2023/07/08 09:23:22;;;;;;;4.28;2.42;;;;;;;;;;4384123;32;317154;-81
2023/07/08 09:25:54;;;;;;;6.00;3.37;;;;;;;;;;4371458;32;417931;-81
2023/07/08 09:28:21;;;;;;;4.40;3.08;;;;;;;;;;4372704;32;316633;-80
2023/07/08 09:30:49;;;;;;;8.30;3.83;;;;;;;;;;4383653;32;317286;-81
2023/07/08 09:33:17;;;;;;;5.15;2.90;;;;;;;;;;4383404;32;317029;-80
2023/07/08 09:35:47;;;;;;;3.95;2.70;;;;;;;;;;4369973;32;416426;-81
2023/07/08 09:38:17;;;;;;;4.57;3.15;;;;;;;;;;4383895;32;317210;-81
2023/07/08 09:40:48;;;;;;;5.03;2.78;;;;;;;;;;4370950;32;416262;-80
2023/07/08 09:43:25;;;;;;;7.25;2.97;;;;;;;;;;4381825;32;317333;-82
2023/07/08 09:45:52;;;;;;;4.55;3.40;;;;;;;;;;4364856;32;415359;-81
2023/07/08 09:48:24;;;;;;;4.75;3.17;;;;;;;;;;4366162;32;317263;-82
2023/07/08 09:50:53;;;;;;;4.00;2.97;;;;;;;;;;4380235;32;316710;-81
2023/07/08 09:53:20;;;;;;;5.43;3.30;;;;;;;;;;4366781;32;317673;-81
2023/07/08 09:55:47;;;;;;;3.40;2.67;;;;;;;;;;4379947;32;316542;-80
2023/07/08 09:58:19;;;;;;;4.30;2.90;;;;;;;;;;4380975;32;316655;-81
2023/07/08 10:00:52;;;;;;;4.12;3.00;;;;;;;;;;4369106;32;416914;-81
2023/07/08 10:03:23;;;;;;;3.47;2.80;;;;;;;;;;4373801;32;317197;-82
2023/07/08 10:05:52;;;;;;;4.57;3.53;;;;;;;;;;4383611;32;316475;-83
2023/07/08 10:08:21;;;;;;;4.65;3.03;;;;;;;;;;4371424;32;323881;-83
2023/07/08 10:10:59;;;;;;;5.60;3.55;;;;;;;;;;4383563;32;316656;-82
2023/07/08 10:13:35;;;;;;;6.78;3.28;;;;;;;;;;4362118;32;316679;-83
2023/07/08 10:16:12;;;;;;;6.12;3.65;;;;;;;;;;4367803;32;317078;-82
2023/07/08 10:18:41;;;;;;;4.60;3.20;;;;;;;;;;4357784;32;317483;-81
2023/07/08 10:21:14;;;;;;;4.55;2.50;;;;;;;;;;4367988;32;317358;-82
2023/07/08 10:23:48;;;;;;;4.37;3.22;;;;;;;;;;4358240;32;317510;-81
2023/07/08 10:26:25;;;;;;;6.47;3.50;;;;;;;;;;4366586;32;317239;-82
2023/07/08 10:29:04;;;;;;;5.75;3.00;;;;;;;;;;4354227;32;416523;-82
2023/07/08 10:31:37;;;;;;;4.75;3.15;;;;;;;;;;4364833;32;316906;-83
2023/07/08 10:34:18;;;;;;;3.80;2.75;;;;;;;;;;4382884;32;316586;-83
2023/07/08 10:36:51;;;;;;;6.45;3.80;;;;;;;;;;4368162;32;418291;-82
2023/07/08 10:39:46;;;;;;;8.43;3.62;;;;;;;;;;4370853;32;317776;-83
2023/07/08 10:42:32;;;;;;;6.68;3.42;;;;;;;;;;4377589;32;317270;-83
2023/07/08 10:45:13;;;;;;;4.82;2.87;;;;;;;;;;4367137;32;415619;-83
2023/07/08 10:47:57;;;;;;;6.50;3.42;;;;;;;;;;4369888;32;317547;-82
2023/07/08 10:50:41;;;;;;;4.30;3.47;;;;;;;;;;4356054;32;317225;-82
2023/07/08 10:53:22;;;;;;;4.68;3.30;;;;;;;;;;4379800;32;316457;-80
2023/07/08 10:55:55;;;;;;;4.57;3.25;;;;;;;;;;4369902;32;418046;-81
2023/07/08 10:58:35;;;;;;;3.90;3.00;;;;;;;;;;4371988;32;316919;-80
2023/07/08 11:01:11;;;;;;;3.87;2.65;;;;;;;;;;4381506;32;317230;-80
2023/07/08 11:03:56;;;;;;;5.00;3.33;;;;;;;;;;4369552;32;316884;-80
2023/07/08 11:06:35;;;;;;;4.65;3.22;;;;;;;;;;4372926;32;316472;-81
2023/07/08 11:09:07;;;;;;;5.43;3.37;;;;;;;;;;4382974;32;316605;-80
2023/07/08 11:11:43;;;;;;;6.50;2.80;;;;;;;;;;4373006;32;324496;-80
2023/07/08 11:14:17;;;;;;;4.35;2.95;;;;;;;;;;4352924;32;317681;-80
2023/07/08 11:16:48;;;;;;;5.07;3.08;;;;;;;;;;4354783;32;417638;-80
2023/07/08 11:19:21;;;;;;;5.57;3.45;;;;;;;;;;4367124;32;347805;-80
2023/07/08 11:21:52;;;;;;;7.72;3.55;;;;;;;;;;4353872;32;417103;-80
2023/07/08 11:24:27;;;;;;;5.90;3.92;;;;;;;;;;4357212;32;317188;-81
2023/07/08 11:26:56;;;;;;;6.22;3.28;;;;;;;;;;4366784;32;316703;-80
2023/07/08 11:29:26;;;;;;;10.35;3.35;;;;;;;;;;4358103;32;317139;-80
2023/07/08 11:31:55;;;;;;;4.35;3.30;;;;;;;;;;4374083;32;354422;-80
2023/07/08 11:34:25;;;;;;;5.37;3.12;;;;;;;;;;4372525;32;317069;-80
2023/07/08 11:36:55;;;;;;;5.25;3.35;;;;;;;;;;4382496;32;317171;-80
2023/07/08 11:39:32;;;;;;;4.43;2.90;;;;;;;;;;4372813;32;317204;-80
2023/07/08 11:42:15;;;;;;;4.47;3.60;;;;;;;;;;4380593;32;342524;-80
2023/07/08 11:44:47;;;;;;;4.05;3.05;;;;;;;;;;4368886;32;393061;-81
2023/07/08 11:47:19;;;;;;;4.12;2.95;;;;;;;;;;4381412;32;317353;-80
2023/07/08 11:49:48;;;;;;;3.70;2.83;;;;;;;;;;4369134;32;415190;-80
2023/07/08 11:52:19;;;;;;;4.53;2.70;;;;;;;;;;4382356;32;317028;-80
2023/07/08 11:54:47;;;;;;;5.10;3.35;;;;;;;;;;4370096;32;416448;-81
2023/07/08 11:57:19;;;;;;;10.32;4.60;;;;;;;;;;4384459;32;317065;-80
2023/07/08 11:59:47;;;;;;;4.57;3.28;;;;;;;;;;4372172;32;419124;-80
2023/07/08 12:02:16;;;;;;;4.20;3.30;;;;;;;;;;4385054;32;316991;-80
2023/07/08 12:04:57;;;;;;;4.30;3.17;;;;;;;;;;4371203;32;418547;-81
2023/07/08 12:07:33;;;;;;;4.97;3.50;;;;;;;;;;4375696;32;317470;-80
2023/07/08 12:10:05;;;;;;;8.10;3.37;;;;;;;;;;4384336;32;316615;-80
2023/07/08 12:12:38;;;;;;;5.45;3.67;;;;;;;;;;4368385;32;317500;-80
2023/07/08 12:15:13;;;;;;;5.93;3.40;;;;;;;;;;4369018;32;316894;-80
2023/07/08 12:17:42;;;;;;;3.95;3.40;;;;;;;;;;4360222;32;322575;-80
2023/07/08 12:20:21;;;;;;;7.95;3.50;;;;;;;;;;4369548;32;317219;-80
2023/07/08 12:22:49;;;;;;;5.35;3.70;;;;;;;;;;4348407;32;416607;-80
2023/07/08 12:25:18;;;;;;;3.42;2.83;;;;;;;;;;4369163;32;317242;-80
2023/07/08 12:27:46;;;;;;;7.00;4.10;;;;;;;;;;4355934;32;418178;-80
2023/07/08 12:30:14;;;;;;;5.30;3.15;;;;;;;;;;4369292;32;317253;-80
2023/07/08 12:32:42;;;;;;;8.25;3.55;;;;;;;;;;4360216;32;330235;-80
2023/07/08 12:35:21;;;;;;;6.35;3.05;;;;;;;;;;4383476;32;317332;-80
2023/07/08 12:37:51;;;;;;;4.93;3.35;;;;;;;;;;4372146;32;417012;-80
2023/07/08 12:40:17;;;;;;;4.95;4.10;;;;;;;;;;4373813;32;317330;-81
2023/07/08 12:42:45;;;;;;;7.25;3.50;;;;;;;;;;4385058;32;317339;-80
2023/07/08 12:45:16;;;;;;;5.10;3.33;;;;;;;;;;4384134;32;317739;-79
2023/07/08 12:47:44;;;;;;;9.80;3.72;;;;;;;;;;4371643;32;414838;-79
2023/07/08 12:50:12;;;;;;;5.25;4.05;;;;;;;;;;4384406;32;317317;-80
2023/07/08 12:52:39;;;;;;;5.87;3.58;;;;;;;;;;4373619;32;317316;-80
2023/07/08 12:55:10;;;;;;;3.62;2.95;;;;;;;;;;4383422;32;316576;-80
2023/07/08 12:57:36;;;;;;;4.65;3.35;;;;;;;;;;4373506;32;332205;-80
2023/07/08 13:00:04;;;;;;;4.65;3.62;;;;;;;;;;4384610;32;317388;-80
2023/07/08 13:02:33;;;;;;;5.30;3.78;;;;;;;;;;4374627;32;317224;-80
2023/07/08 13:05:03;;;;;;;6.18;3.72;;;;;;;;;;4383251;32;317177;-80
2023/07/08 13:07:36;;;;;;;6.12;3.67;;;;;;;;;;4373364;32;317377;-80
2023/07/08 13:10:04;;;;;;;10.27;4.10;;;;;;;;;;4383676;32;317379;-80
2023/07/08 13:12:35;;;;;;;5.62;3.60;;;;;;;;;;4368506;32;318057;-80
2023/07/08 13:15:04;;;;;;;7.50;3.92;;;;;;;;;;4368487;32;317314;-80
2023/07/08 13:17:31;;;;;;;6.80;4.28;;;;;;;;;;4357972;32;316558;-80
2023/07/08 13:19:58;;;;;;;4.35;3.08;;;;;;;;;;4353168;32;316688;-80
2023/07/08 13:22:26;;;;;;;5.10;3.75;;;;;;;;;;4359078;32;316612;-80
2023/07/08 13:25:01;;;;;;;5.03;3.78;;;;;;;;;;4368075;32;317279;-80
2023/07/08 13:27:28;;;;;;;5.77;4.10;;;;;;;;;;4357442;32;342181;-80
2023/07/08 13:30:05;;;;;;;6.47;4.25;;;;;;;;;;4367002;32;325168;-80
2023/07/08 13:32:32;;;;;;;4.90;3.67;;;;;;;;;;4372562;32;317662;-80
2023/07/08 13:34:59;;;;;;;7.47;3.40;;;;;;;;;;4383992;32;317394;-80
2023/07/08 13:37:26;;;;;;;6.62;4.18;;;;;;;;;;4373243;32;317681;-80
2023/07/08 13:39:55;;;;;;;6.68;3.90;;;;;;;;;;4382935;32;316383;-80
2023/07/08 13:42:22;;;;;;;7.55;3.92;;;;;;;;;;4372498;32;317333;-80
2023/07/08 13:44:50;;;;;;;4.28;3.85;;;;;;;;;;4382399;32;317274;-80
2023/07/08 13:47:25;;;;;;;5.87;4.00;;;;;;;;;;4383493;32;317714;-80
2023/07/08 13:49:57;;;;;;;5.72;3.92;;;;;;;;;;4371160;32;417829;-80
2023/07/08 13:52:24;;;;;;;4.68;3.47;;;;;;;;;;4374042;32;317522;-80
2023/07/08 13:54:53;;;;;;;4.45;3.37;;;;;;;;;;4382823;32;316694;-80
2023/07/08 13:57:23;;;;;;;4.45;3.25;;;;;;;;;;4373956;32;317549;-80
2023/07/08 13:59:50;;;;;;;14.07;4.35;;;;;;;;;;4383206;32;317405;-80
2023/07/08 14:02:21;;;;;;;9.02;5.07;;;;;;;;;;4373801;32;318409;-82
2023/07/08 14:04:50;;;;;;;4.78;3.78;;;;;;;;;;4383821;32;317210;-80
2023/07/08 14:07:18;;;;;;;4.93;4.00;;;;;;;;;;4381763;32;317160;-82
2023/07/08 14:09:45;;;;;;;6.90;3.97;;;;;;;;;;4383855;32;317526;-80
2023/07/08 14:12:12;;;;;;;4.95;4.05;;;;;;;;;;4378699;32;317197;-80
2023/07/08 14:14:39;;;;;;;7.80;4.22;;;;;;;;;;4356790;32;317410;-80
2023/07/08 14:17:09;;;;;;;7.47;4.18;;;;;;;;;;4367080;32;317443;-80
2023/07/08 14:19:36;;;;;;;8.20;4.37;;;;;;;;;;4347089;32;317234;-80
2023/07/08 14:22:21;;;;;;;5.53;3.90;;;;;;;;;;4366996;32;331924;-80
2023/07/08 14:24:48;;;;;;;6.05;4.25;;;;;;;;;;4355571;32;416368;-80
2023/07/08 14:27:16;;;;;;;7.47;4.68;;;;;;;;;;4366947;32;316618;-79
2023/07/08 14:29:45;;;;;;;5.45;4.20;;;;;;;;;;4355050;32;416908;-81
2023/07/08 14:32:18;;;;;;;8.43;4.45;;;;;;;;;;4378086;32;317222;-80
2023/07/08 14:34:50;;;;;;;6.10;4.50;;;;;;;;;;4370477;32;416799;-80